sensor_id;sensor_type;location;lat;lon;timestamp;temperature;humidity
12119;DHT22;6123;48.864;9.200;2022-10-31T00:00:51;12.10;99.90
12119;DHT22;6123;48.864;9.200;2022-10-31T00:03:17;12.00;99.90
12119;DHT22;6123;48.864;9.200;2022-10-31T00:05:48;11.90;99.90
12119;DHT22;6123;48.864;9.200;2022-10-31T00:08:15;12.00;99.90
12119;DHT22;6123;48.864;9.200;2022-10-31T00:10:42;11.90;99.90
12119;DHT22;6123;48.864;9.200;2022-10-31T00:13:09;11.90;99.90
12119;DHT22;6123;48.864;9.200;2022-10-31T00:15:36;11.80;99.90
12119;DHT22;6123;48.864;9.200;2022-10-31T00:18:02;11.70;99.90
12119;DHT22;6123;48.864;9.200;2022-10-31T00:20:28;11.70;99.90
12119;DHT22;6123;48.864;9.200;2022-10-31T00:23:00;11.70;99.90
12119;DHT22;6123;48.864;9.200;2022-10-31T00:25:28;11.80;99.90
12119;DHT22;6123;48.864;9.200;2022-10-31T00:27:56;11.70;99.90
12119;DHT22;6123;48.864;9.200;2022-10-31T00:30:21;11.70;99.90
12119;DHT22;6123;48.864;9.200;2022-10-31T00:32:49;11.60;99.90
12119;DHT22;6123;48.864;9.200;2022-10-31T00:35:15;11.60;99.90
12119;DHT22;6123;48.864;9.200;2022-10-31T00:37:43;11.60;99.90
12119;DHT22;6123;48.864;9.200;2022-10-31T00:40:09;11.50;99.90
12119;DHT22;6123;48.864;9.200;2022-10-31T00:42:35;11.50;99.90
12119;DHT22;6123;48.864;9.200;2022-10-31T00:45:03;11.50;99.90
12119;DHT22;6123;48.864;9.200;2022-10-31T00:47:28;11.50;99.90
12119;DHT22;6123;48.864;9.200;2022-10-31T00:49:54;11.50;99.90
12119;DHT22;6123;48.864;9.200;2022-10-31T00:52:22;11.50;99.90
12119;DHT22;6123;48.864;9.200;2022-10-31T00:54:50;11.40;99.90
12119;DHT22;6123;48.864;9.200;2022-10-31T00:57:18;11.50;99.90
12119;DHT22;6123;48.864;9.200;2022-10-31T00:59:43;11.50;99.90
12119;DHT22;6123;48.864;9.200;2022-10-31T01:02:09;11.40;99.90
12119;DHT22;6123;48.864;9.200;2022-10-31T01:04:37;11.40;99.90
12119;DHT22;6123;48.864;9.200;2022-10-31T01:07:02;11.40;99.90
12119;DHT22;6123;48.864;9.200;2022-10-31T01:09:28;11.40;99.90
12119;DHT22;6123;48.864;9.200;2022-10-31T01:11:53;11.30;99.90
12119;DHT22;6123;48.864;9.200;2022-10-31T01:14:19;11.30;99.90
12119;DHT22;6123;48.864;9.200;2022-10-31T01:16:44;11.30;99.90
12119;DHT22;6123;48.864;9.200;2022-10-31T01:19:10;11.30;99.90
12119;DHT22;6123;48.864;9.200;2022-10-31T01:21:38;11.20;99.90
12119;DHT22;6123;48.864;9.200;2022-10-31T01:24:04;11.20;99.90
12119;DHT22;6123;48.864;9.200;2022-10-31T01:26:31;11.10;99.90
12119;DHT22;6123;48.864;9.200;2022-10-31T01:28:59;11.10;99.90
12119;DHT22;6123;48.864;9.200;2022-10-31T01:31:28;11.20;99.90
12119;DHT22;6123;48.864;9.200;2022-10-31T01:33:57;11.20;99.90
12119;DHT22;6123;48.864;9.200;2022-10-31T01:36:25;11.20;99.90
12119;DHT22;6123;48.864;9.200;2022-10-31T01:38:53;11.20;99.90
12119;DHT22;6123;48.864;9.200;2022-10-31T01:41:28;11.20;99.90
12119;DHT22;6123;48.864;9.200;2022-10-31T01:44:02;11.20;99.90
12119;DHT22;6123;48.864;9.200;2022-10-31T01:52:26;11.30;99.90
12119;DHT22;6123;48.864;9.200;2022-10-31T01:55:03;11.20;99.90
12119;DHT22;6123;48.864;9.200;2022-10-31T01:57:32;11.30;99.90
12119;DHT22;6123;48.864;9.200;2022-10-31T02:00:03;11.20;99.90
12119;DHT22;6123;48.864;9.200;2022-10-31T02:02:32;11.10;99.90
12119;DHT22;6123;48.864;9.200;2022-10-31T02:05:00;11.10;99.90
12119;DHT22;6123;48.864;9.200;2022-10-31T02:07:31;11.10;99.90
12119;DHT22;6123;48.864;9.200;2022-10-31T02:10:00;11.10;99.90
12119;DHT22;6123;48.864;9.200;2022-10-31T02:12:28;11.10;99.90
12119;DHT22;6123;48.864;9.200;2022-10-31T02:14:55;11.10;99.90
12119;DHT22;6123;48.864;9.200;2022-10-31T02:17:23;11.10;99.90
12119;DHT22;6123;48.864;9.200;2022-10-31T02:19:54;11.00;99.90
12119;DHT22;6123;48.864;9.200;2022-10-31T02:25:24;11.00;99.90
12119;DHT22;6123;48.864;9.200;2022-10-31T02:33:52;10.90;99.90
12119;DHT22;6123;48.864;9.200;2022-10-31T02:36:28;10.90;99.90
12119;DHT22;6123;48.864;9.200;2022-10-31T02:39:11;11.20;99.90
12119;DHT22;6123;48.864;9.200;2022-10-31T02:44:36;10.90;99.90
12119;DHT22;6123;48.864;9.200;2022-10-31T02:47:11;10.90;99.90
12119;DHT22;6123;48.864;9.200;2022-10-31T02:49:56;10.90;99.90
12119;DHT22;6123;48.864;9.200;2022-10-31T02:52:31;10.90;99.90
12119;DHT22;6123;48.864;9.200;2022-10-31T02:55:11;10.80;99.90
12119;DHT22;6123;48.864;9.200;2022-10-31T02:57:38;10.90;99.90
12119;DHT22;6123;48.864;9.200;2022-10-31T03:00:07;10.90;99.90
12119;DHT22;6123;48.864;9.200;2022-10-31T03:03:23;10.90;99.90
12119;DHT22;6123;48.864;9.200;2022-10-31T03:11:02;10.90;99.90
12119;DHT22;6123;48.864;9.200;2022-10-31T03:19:01;10.80;99.90
12119;DHT22;6123;48.864;9.200;2022-10-31T03:21:37;10.70;99.90
12119;DHT22;6123;48.864;9.200;2022-10-31T03:24:06;10.80;99.90
12119;DHT22;6123;48.864;9.200;2022-10-31T03:26:41;10.80;99.90
12119;DHT22;6123;48.864;9.200;2022-10-31T03:29:13;10.60;99.90
12119;DHT22;6123;48.864;9.200;2022-10-31T03:31:53;10.60;99.90
12119;DHT22;6123;48.864;9.200;2022-10-31T03:34:21;10.60;99.90
12119;DHT22;6123;48.864;9.200;2022-10-31T03:36:50;10.60;99.90
12119;DHT22;6123;48.864;9.200;2022-10-31T03:39:19;10.60;99.90
12119;DHT22;6123;48.864;9.200;2022-10-31T03:41:53;10.60;99.90
12119;DHT22;6123;48.864;9.200;2022-10-31T03:44:21;10.50;99.90
12119;DHT22;6123;48.864;9.200;2022-10-31T03:46:48;10.60;99.90
12119;DHT22;6123;48.864;9.200;2022-10-31T03:49:14;10.50;99.90
12119;DHT22;6123;48.864;9.200;2022-10-31T03:51:45;10.70;99.90
12119;DHT22;6123;48.864;9.200;2022-10-31T03:54:28;10.60;99.90
12119;DHT22;6123;48.864;9.200;2022-10-31T03:57:03;10.50;99.90
12119;DHT22;6123;48.864;9.200;2022-10-31T03:59:39;10.50;99.90
12119;DHT22;6123;48.864;9.200;2022-10-31T04:02:11;10.50;99.90
12119;DHT22;6123;48.864;9.200;2022-10-31T04:04:38;10.40;99.90
12119;DHT22;6123;48.864;9.200;2022-10-31T04:07:09;10.30;99.90
12119;DHT22;6123;48.864;9.200;2022-10-31T04:09:38;10.70;99.90
12119;DHT22;6123;48.864;9.200;2022-10-31T04:12:07;10.60;99.90
12119;DHT22;6123;48.864;9.200;2022-10-31T04:14:36;10.50;99.90
12119;DHT22;6123;48.864;9.200;2022-10-31T04:17:09;10.40;99.90
12119;DHT22;6123;48.864;9.200;2022-10-31T04:19:36;10.30;99.90
12119;DHT22;6123;48.864;9.200;2022-10-31T04:22:02;10.20;99.90
12119;DHT22;6123;48.864;9.200;2022-10-31T04:24:27;10.20;99.90
12119;DHT22;6123;48.864;9.200;2022-10-31T04:26:53;10.30;99.90
12119;DHT22;6123;48.864;9.200;2022-10-31T04:29:18;10.20;99.90
12119;DHT22;6123;48.864;9.200;2022-10-31T04:31:44;10.20;99.90
12119;DHT22;6123;48.864;9.200;2022-10-31T04:34:10;10.30;99.90
12119;DHT22;6123;48.864;9.200;2022-10-31T04:36:35;10.20;99.90
12119;DHT22;6123;48.864;9.200;2022-10-31T04:39:01;10.20;99.90
12119;DHT22;6123;48.864;9.200;2022-10-31T04:41:28;10.30;99.90
12119;DHT22;6123;48.864;9.200;2022-10-31T04:43:54;10.40;99.90
12119;DHT22;6123;48.864;9.200;2022-10-31T04:46:22;10.30;99.90
12119;DHT22;6123;48.864;9.200;2022-10-31T04:48:48;10.30;99.90
12119;DHT22;6123;48.864;9.200;2022-10-31T04:51:16;10.20;99.90
12119;DHT22;6123;48.864;9.200;2022-10-31T04:53:42;10.20;99.90
12119;DHT22;6123;48.864;9.200;2022-10-31T04:56:07;10.20;99.90
12119;DHT22;6123;48.864;9.200;2022-10-31T04:58:33;10.20;99.90
12119;DHT22;6123;48.864;9.200;2022-10-31T05:00:59;10.20;99.90
12119;DHT22;6123;48.864;9.200;2022-10-31T05:03:24;10.20;99.90
12119;DHT22;6123;48.864;9.200;2022-10-31T05:05:50;10.20;99.90
12119;DHT22;6123;48.864;9.200;2022-10-31T05:08:16;10.10;99.90
12119;DHT22;6123;48.864;9.200;2022-10-31T05:10:41;10.10;99.90
12119;DHT22;6123;48.864;9.200;2022-10-31T05:13:07;10.10;99.90
12119;DHT22;6123;48.864;9.200;2022-10-31T05:15:33;10.10;99.90
12119;DHT22;6123;48.864;9.200;2022-10-31T05:17:59;10.10;99.90
12119;DHT22;6123;48.864;9.200;2022-10-31T05:20:27;10.10;99.90
12119;DHT22;6123;48.864;9.200;2022-10-31T05:22:57;10.00;99.90
12119;DHT22;6123;48.864;9.200;2022-10-31T05:25:24;10.10;99.90
12119;DHT22;6123;48.864;9.200;2022-10-31T05:27:54;10.10;99.90
12119;DHT22;6123;48.864;9.200;2022-10-31T05:30:23;10.20;99.90
12119;DHT22;6123;48.864;9.200;2022-10-31T05:32:51;9.80;99.90
12119;DHT22;6123;48.864;9.200;2022-10-31T05:35:20;10.20;99.90
12119;DHT22;6123;48.864;9.200;2022-10-31T05:37:46;10.30;99.90
12119;DHT22;6123;48.864;9.200;2022-10-31T05:40:13;10.30;99.90
12119;DHT22;6123;48.864;9.200;2022-10-31T05:42:40;10.20;99.90
12119;DHT22;6123;48.864;9.200;2022-10-31T05:45:10;10.20;99.90
12119;DHT22;6123;48.864;9.200;2022-10-31T05:47:36;10.20;99.90
12119;DHT22;6123;48.864;9.200;2022-10-31T05:50:04;10.20;99.90
12119;DHT22;6123;48.864;9.200;2022-10-31T05:52:30;10.20;99.90
12119;DHT22;6123;48.864;9.200;2022-10-31T05:54:58;10.20;99.90
12119;DHT22;6123;48.864;9.200;2022-10-31T05:57:24;10.20;99.90
12119;DHT22;6123;48.864;9.200;2022-10-31T05:59:49;10.20;99.90
12119;DHT22;6123;48.864;9.200;2022-10-31T06:02:18;10.20;99.90
12119;DHT22;6123;48.864;9.200;2022-10-31T06:04:44;10.10;99.90
12119;DHT22;6123;48.864;9.200;2022-10-31T06:07:10;10.30;99.90
12119;DHT22;6123;48.864;9.200;2022-10-31T06:09:38;10.30;99.90
12119;DHT22;6123;48.864;9.200;2022-10-31T06:12:03;10.20;99.90
12119;DHT22;6123;48.864;9.200;2022-10-31T06:14:29;10.30;99.90
12119;DHT22;6123;48.864;9.200;2022-10-31T06:16:55;10.30;99.90
12119;DHT22;6123;48.864;9.200;2022-10-31T06:19:21;10.20;99.90
12119;DHT22;6123;48.864;9.200;2022-10-31T06:21:49;10.20;99.90
12119;DHT22;6123;48.864;9.200;2022-10-31T06:24:15;10.10;99.90
12119;DHT22;6123;48.864;9.200;2022-10-31T06:26:41;10.10;99.90
12119;DHT22;6123;48.864;9.200;2022-10-31T06:29:11;10.10;99.90
12119;DHT22;6123;48.864;9.200;2022-10-31T06:31:36;10.10;99.90
12119;DHT22;6123;48.864;9.200;2022-10-31T06:34:02;10.20;99.90
12119;DHT22;6123;48.864;9.200;2022-10-31T06:36:28;10.20;99.90
12119;DHT22;6123;48.864;9.200;2022-10-31T06:38:53;10.10;99.90
12119;DHT22;6123;48.864;9.200;2022-10-31T06:41:19;10.20;99.90
12119;DHT22;6123;48.864;9.200;2022-10-31T06:43:48;10.20;99.90
12119;DHT22;6123;48.864;9.200;2022-10-31T06:46:15;10.30;99.90
12119;DHT22;6123;48.864;9.200;2022-10-31T06:48:41;10.30;99.90
12119;DHT22;6123;48.864;9.200;2022-10-31T06:51:07;10.30;99.90
12119;DHT22;6123;48.864;9.200;2022-10-31T06:53:33;10.30;99.90
12119;DHT22;6123;48.864;9.200;2022-10-31T06:55:59;10.40;99.90
12119;DHT22;6123;48.864;9.200;2022-10-31T06:58:24;10.40;99.90
12119;DHT22;6123;48.864;9.200;2022-10-31T07:00:52;10.50;99.90
12119;DHT22;6123;48.864;9.200;2022-10-31T07:03:18;10.50;99.90
12119;DHT22;6123;48.864;9.200;2022-10-31T07:05:45;10.60;99.90
12119;DHT22;6123;48.864;9.200;2022-10-31T07:08:12;10.70;99.90
12119;DHT22;6123;48.864;9.200;2022-10-31T07:10:40;10.70;99.90
12119;DHT22;6123;48.864;9.200;2022-10-31T07:13:13;10.80;99.90
12119;DHT22;6123;48.864;9.200;2022-10-31T07:15:41;10.90;99.90
12119;DHT22;6123;48.864;9.200;2022-10-31T07:18:09;10.90;99.90
12119;DHT22;6123;48.864;9.200;2022-10-31T07:20:35;11.10;99.90
12119;DHT22;6123;48.864;9.200;2022-10-31T07:23:01;10.90;99.90
12119;DHT22;6123;48.864;9.200;2022-10-31T07:25:29;11.00;99.90
12119;DHT22;6123;48.864;9.200;2022-10-31T07:27:57;11.10;99.90
12119;DHT22;6123;48.864;9.200;2022-10-31T07:30:25;11.10;99.90
12119;DHT22;6123;48.864;9.200;2022-10-31T07:32:51;11.10;99.90
12119;DHT22;6123;48.864;9.200;2022-10-31T07:35:24;11.20;99.90
12119;DHT22;6123;48.864;9.200;2022-10-31T07:37:50;11.30;99.90
12119;DHT22;6123;48.864;9.200;2022-10-31T07:40:16;11.40;99.90
12119;DHT22;6123;48.864;9.200;2022-10-31T07:42:46;11.50;99.90
12119;DHT22;6123;48.864;9.200;2022-10-31T07:45:19;11.50;99.90
12119;DHT22;6123;48.864;9.200;2022-10-31T07:47:49;11.50;99.90
12119;DHT22;6123;48.864;9.200;2022-10-31T07:50:21;11.60;99.90
12119;DHT22;6123;48.864;9.200;2022-10-31T07:52:47;11.60;99.90
12119;DHT22;6123;48.864;9.200;2022-10-31T07:55:13;11.70;99.90
12119;DHT22;6123;48.864;9.200;2022-10-31T07:57:44;11.90;99.90
12119;DHT22;6123;48.864;9.200;2022-10-31T08:00:10;11.90;99.90
12119;DHT22;6123;48.864;9.200;2022-10-31T08:02:36;12.00;99.90
12119;DHT22;6123;48.864;9.200;2022-10-31T08:05:04;12.00;99.90
12119;DHT22;6123;48.864;9.200;2022-10-31T08:07:36;12.20;99.90
12119;DHT22;6123;48.864;9.200;2022-10-31T08:10:02;12.30;99.90
12119;DHT22;6123;48.864;9.200;2022-10-31T08:12:28;12.20;99.90
12119;DHT22;6123;48.864;9.200;2022-10-31T08:14:56;12.10;99.90
12119;DHT22;6123;48.864;9.200;2022-10-31T08:17:22;12.20;99.90
12119;DHT22;6123;48.864;9.200;2022-10-31T08:19:47;13.00;99.90
12119;DHT22;6123;48.864;9.200;2022-10-31T08:22:13;12.20;99.90
12119;DHT22;6123;48.864;9.200;2022-10-31T08:24:38;12.30;99.90
12119;DHT22;6123;48.864;9.200;2022-10-31T08:27:04;12.30;99.90
12119;DHT22;6123;48.864;9.200;2022-10-31T08:29:32;12.40;99.90
12119;DHT22;6123;48.864;9.200;2022-10-31T08:31:57;12.20;99.90
12119;DHT22;6123;48.864;9.200;2022-10-31T08:34:24;12.20;99.90
12119;DHT22;6123;48.864;9.200;2022-10-31T08:36:49;12.30;99.90
12119;DHT22;6123;48.864;9.200;2022-10-31T08:39:15;12.30;99.90
12119;DHT22;6123;48.864;9.200;2022-10-31T08:41:41;12.40;99.90
12119;DHT22;6123;48.864;9.200;2022-10-31T08:44:06;12.30;99.90
12119;DHT22;6123;48.864;9.200;2022-10-31T08:46:32;12.50;99.90
12119;DHT22;6123;48.864;9.200;2022-10-31T08:48:58;12.50;99.90
12119;DHT22;6123;48.864;9.200;2022-10-31T08:51:25;12.50;99.90
12119;DHT22;6123;48.864;9.200;2022-10-31T08:53:51;12.60;99.90
12119;DHT22;6123;48.864;9.200;2022-10-31T08:56:17;12.70;99.90
12119;DHT22;6123;48.864;9.200;2022-10-31T08:58:45;12.90;99.90
12119;DHT22;6123;48.864;9.200;2022-10-31T09:01:10;13.00;99.90
12119;DHT22;6123;48.864;9.200;2022-10-31T09:03:36;13.00;99.90
12119;DHT22;6123;48.864;9.200;2022-10-31T09:06:02;13.20;99.90
12119;DHT22;6123;48.864;9.200;2022-10-31T09:08:32;13.40;99.90
12119;DHT22;6123;48.864;9.200;2022-10-31T09:10:59;13.60;99.90
12119;DHT22;6123;48.864;9.200;2022-10-31T09:13:24;13.80;99.90
12119;DHT22;6123;48.864;9.200;2022-10-31T09:15:53;13.90;99.90
12119;DHT22;6123;48.864;9.200;2022-10-31T09:18:20;14.00;99.90
12119;DHT22;6123;48.864;9.200;2022-10-31T09:20:47;13.60;99.90
12119;DHT22;6123;48.864;9.200;2022-10-31T09:23:21;14.60;99.90
12119;DHT22;6123;48.864;9.200;2022-10-31T09:25:49;14.40;99.90
12119;DHT22;6123;48.864;9.200;2022-10-31T09:28:17;14.50;99.90
12119;DHT22;6123;48.864;9.200;2022-10-31T09:30:46;14.10;99.90
12119;DHT22;6123;48.864;9.200;2022-10-31T09:33:12;14.10;99.90
12119;DHT22;6123;48.864;9.200;2022-10-31T09:35:39;14.20;99.90
12119;DHT22;6123;48.864;9.200;2022-10-31T09:38:16;14.20;99.90
12119;DHT22;6123;48.864;9.200;2022-10-31T09:43:49;14.50;99.90
12119;DHT22;6123;48.864;9.200;2022-10-31T09:49:48;14.60;99.90
12119;DHT22;6123;48.864;9.200;2022-10-31T09:52:33;14.80;99.90
12119;DHT22;6123;48.864;9.200;2022-10-31T09:55:08;14.80;99.90
12119;DHT22;6123;48.864;9.200;2022-10-31T09:57:38;14.80;99.90
12119;DHT22;6123;48.864;9.200;2022-10-31T10:00:06;14.80;99.90
12119;DHT22;6123;48.864;9.200;2022-10-31T10:03:10;14.90;99.90
12119;DHT22;6123;48.864;9.200;2022-10-31T10:05:46;14.90;99.90
12119;DHT22;6123;48.864;9.200;2022-10-31T10:08:18;14.90;99.90
12119;DHT22;6123;48.864;9.200;2022-10-31T10:10:48;15.30;99.90
12119;DHT22;6123;48.864;9.200;2022-10-31T10:16:45;15.20;99.90
12119;DHT22;6123;48.864;9.200;2022-10-31T10:19:39;15.40;99.90
12119;DHT22;6123;48.864;9.200;2022-10-31T10:22:22;15.50;99.90
12119;DHT22;6123;48.864;9.200;2022-10-31T10:27:54;15.40;99.90
12119;DHT22;6123;48.864;9.200;2022-10-31T10:30:31;15.50;99.90
12119;DHT22;6123;48.864;9.200;2022-10-31T10:33:24;15.40;99.90
12119;DHT22;6123;48.864;9.200;2022-10-31T10:36:00;15.50;99.90
12119;DHT22;6123;48.864;9.200;2022-10-31T10:38:47;15.70;99.90
12119;DHT22;6123;48.864;9.200;2022-10-31T10:41:20;15.90;99.90
12119;DHT22;6123;48.864;9.200;2022-10-31T10:43:49;16.00;99.90
12119;DHT22;6123;48.864;9.200;2022-10-31T10:49:44;16.20;99.90
12119;DHT22;6123;48.864;9.200;2022-10-31T10:57:41;15.90;99.90
12119;DHT22;6123;48.864;9.200;2022-10-31T11:00:21;16.00;99.90
12119;DHT22;6123;48.864;9.200;2022-10-31T11:02:47;16.00;99.90
12119;DHT22;6123;48.864;9.200;2022-10-31T11:05:33;16.00;99.90
12119;DHT22;6123;48.864;9.200;2022-10-31T11:08:02;16.00;99.90
12119;DHT22;6123;48.864;9.200;2022-10-31T11:10:28;16.10;99.90
12119;DHT22;6123;48.864;9.200;2022-10-31T11:15:51;16.20;99.90
12119;DHT22;6123;48.864;9.200;2022-10-31T11:18:26;16.40;99.90
12119;DHT22;6123;48.864;9.200;2022-10-31T11:20:54;16.40;99.90
12119;DHT22;6123;48.864;9.200;2022-10-31T11:23:23;16.50;99.90
12119;DHT22;6123;48.864;9.200;2022-10-31T11:25:56;16.70;99.90
12119;DHT22;6123;48.864;9.200;2022-10-31T11:28:27;16.60;99.90
12119;DHT22;6123;48.864;9.200;2022-10-31T11:30:57;16.70;99.90
12119;DHT22;6123;48.864;9.200;2022-10-31T11:35:57;17.00;99.90
12119;DHT22;6123;48.864;9.200;2022-10-31T11:38:34;17.20;99.90
12119;DHT22;6123;48.864;9.200;2022-10-31T11:41:12;17.40;99.90
12119;DHT22;6123;48.864;9.200;2022-10-31T11:43:39;17.40;99.90
12119;DHT22;6123;48.864;9.200;2022-10-31T11:46:34;17.50;99.90
12119;DHT22;6123;48.864;9.200;2022-10-31T11:49:01;17.70;99.90
12119;DHT22;6123;48.864;9.200;2022-10-31T11:51:30;17.60;99.90
12119;DHT22;6123;48.864;9.200;2022-10-31T11:53:58;17.50;99.90
12119;DHT22;6123;48.864;9.200;2022-10-31T11:56:27;17.50;99.90
12119;DHT22;6123;48.864;9.200;2022-10-31T11:58:58;17.50;99.90
12119;DHT22;6123;48.864;9.200;2022-10-31T12:01:27;17.60;99.90
12119;DHT22;6123;48.864;9.200;2022-10-31T12:04:09;17.70;99.90
12119;DHT22;6123;48.864;9.200;2022-10-31T12:06:39;17.80;99.90
12119;DHT22;6123;48.864;9.200;2022-10-31T12:09:22;17.60;99.90
12119;DHT22;6123;48.864;9.200;2022-10-31T12:12:15;17.50;99.90
12119;DHT22;6123;48.864;9.200;2022-10-31T12:17:35;17.70;99.90
12119;DHT22;6123;48.864;9.200;2022-10-31T12:20:22;17.80;99.90
12119;DHT22;6123;48.864;9.200;2022-10-31T12:23:13;17.90;99.90
12119;DHT22;6123;48.864;9.200;2022-10-31T12:28:22;18.10;99.90
12119;DHT22;6123;48.864;9.200;2022-10-31T12:31:06;18.30;99.90
12119;DHT22;6123;48.864;9.200;2022-10-31T12:33:49;18.50;99.90
12119;DHT22;6123;48.864;9.200;2022-10-31T12:42:51;18.80;99.90
12119;DHT22;6123;48.864;9.200;2022-10-31T12:59:12;18.00;99.90
12119;DHT22;6123;48.864;9.200;2022-10-31T13:04:22;18.20;99.90
12119;DHT22;6123;48.864;9.200;2022-10-31T13:06:59;18.20;99.90
12119;DHT22;6123;48.864;9.200;2022-10-31T13:10:00;18.30;99.90
12119;DHT22;6123;48.864;9.200;2022-10-31T13:12:24;18.40;99.90
12119;DHT22;6123;48.864;9.200;2022-10-31T13:14:56;18.30;99.90
12119;DHT22;6123;48.864;9.200;2022-10-31T13:17:37;18.40;99.90
12119;DHT22;6123;48.864;9.200;2022-10-31T13:25:42;18.10;99.90
12119;DHT22;6123;48.864;9.200;2022-10-31T13:28:29;18.20;99.90
12119;DHT22;6123;48.864;9.200;2022-10-31T13:30:56;18.20;99.90
12119;DHT22;6123;48.864;9.200;2022-10-31T13:33:29;18.30;99.90
12119;DHT22;6123;48.864;9.200;2022-10-31T13:41:45;17.80;99.90
12119;DHT22;6123;48.864;9.200;2022-10-31T13:44:24;18.10;99.90
12119;DHT22;6123;48.864;9.200;2022-10-31T13:46:54;18.40;99.90
12119;DHT22;6123;48.864;9.200;2022-10-31T13:49:24;18.90;99.90
12119;DHT22;6123;48.864;9.200;2022-10-31T13:51:50;19.40;99.90
12119;DHT22;6123;48.864;9.200;2022-10-31T13:54:33;19.60;99.90
12119;DHT22;6123;48.864;9.200;2022-10-31T13:56:59;19.70;99.90
12119;DHT22;6123;48.864;9.200;2022-10-31T13:59:29;19.70;99.90
12119;DHT22;6123;48.864;9.200;2022-10-31T14:02:02;19.90;99.90
12119;DHT22;6123;48.864;9.200;2022-10-31T14:04:47;19.70;99.90
12119;DHT22;6123;48.864;9.200;2022-10-31T14:07:16;19.70;99.90
12119;DHT22;6123;48.864;9.200;2022-10-31T14:10:03;19.50;99.90
12119;DHT22;6123;48.864;9.200;2022-10-31T14:12:40;19.40;99.90
12119;DHT22;6123;48.864;9.200;2022-10-31T14:15:23;19.50;99.90
12119;DHT22;6123;48.864;9.200;2022-10-31T14:28:47;19.20;99.90
12119;DHT22;6123;48.864;9.200;2022-10-31T14:31:42;19.10;99.90
12119;DHT22;6123;48.864;9.200;2022-10-31T14:42:17;19.00;99.90
12119;DHT22;6123;48.864;9.200;2022-10-31T14:50:17;18.90;99.90
12119;DHT22;6123;48.864;9.200;2022-10-31T14:52:52;19.10;99.90
12119;DHT22;6123;48.864;9.200;2022-10-31T14:55:19;19.00;99.90
12119;DHT22;6123;48.864;9.200;2022-10-31T14:58:01;18.90;99.90
12119;DHT22;6123;48.864;9.200;2022-10-31T15:00:32;19.10;99.90
12119;DHT22;6123;48.864;9.200;2022-10-31T15:03:24;19.00;99.90
12119;DHT22;6123;48.864;9.200;2022-10-31T15:05:56;19.30;99.90
12119;DHT22;6123;48.864;9.200;2022-10-31T15:08:38;18.90;99.90
12119;DHT22;6123;48.864;9.200;2022-10-31T15:13:48;18.60;99.90
12119;DHT22;6123;48.864;9.200;2022-10-31T15:16:20;18.60;99.90
12119;DHT22;6123;48.864;9.200;2022-10-31T15:21:25;18.30;99.90
12119;DHT22;6123;48.864;9.200;2022-10-31T15:23:53;18.30;99.90
12119;DHT22;6123;48.864;9.200;2022-10-31T15:26:24;18.20;99.90
12119;DHT22;6123;48.864;9.200;2022-10-31T15:29:03;18.00;99.90
12119;DHT22;6123;48.864;9.200;2022-10-31T15:31:30;17.70;99.90
12119;DHT22;6123;48.864;9.200;2022-10-31T15:34:03;17.40;99.90
12119;DHT22;6123;48.864;9.200;2022-10-31T15:36:32;17.00;99.90
12119;DHT22;6123;48.864;9.200;2022-10-31T15:38:58;17.10;99.90
12119;DHT22;6123;48.864;9.200;2022-10-31T15:41:47;17.20;99.90
12119;DHT22;6123;48.864;9.200;2022-10-31T15:47:03;17.30;99.90
12119;DHT22;6123;48.864;9.200;2022-10-31T15:49:38;17.20;99.90
12119;DHT22;6123;48.864;9.200;2022-10-31T15:54:44;16.90;99.90
12119;DHT22;6123;48.864;9.200;2022-10-31T15:57:11;16.80;99.90
12119;DHT22;6123;48.864;9.200;2022-10-31T15:59:37;16.80;99.90
12119;DHT22;6123;48.864;9.200;2022-10-31T16:02:13;16.80;99.90
12119;DHT22;6123;48.864;9.200;2022-10-31T16:05:34;16.70;99.90
12119;DHT22;6123;48.864;9.200;2022-10-31T16:07:33;16.70;99.90
12119;DHT22;6123;48.864;9.200;2022-10-31T16:10:01;16.70;99.90
12119;DHT22;6123;48.864;9.200;2022-10-31T16:12:42;16.60;99.90
12119;DHT22;6123;48.864;9.200;2022-10-31T16:15:15;16.50;99.90
12119;DHT22;6123;48.864;9.200;2022-10-31T16:17:47;16.30;99.90
12119;DHT22;6123;48.864;9.200;2022-10-31T16:20:36;16.20;99.90
12119;DHT22;6123;48.864;9.200;2022-10-31T16:23:02;16.10;99.90
12119;DHT22;6123;48.864;9.200;2022-10-31T16:25:34;16.00;99.90
12119;DHT22;6123;48.864;9.200;2022-10-31T16:28:13;15.90;99.90
12119;DHT22;6123;48.864;9.200;2022-10-31T16:30:42;15.90;99.90
12119;DHT22;6123;48.864;9.200;2022-10-31T16:33:32;15.90;99.90
12119;DHT22;6123;48.864;9.200;2022-10-31T16:38:57;15.80;99.90
12119;DHT22;6123;48.864;9.200;2022-10-31T16:41:23;15.60;99.90
12119;DHT22;6123;48.864;9.200;2022-10-31T16:43:50;15.50;99.90
12119;DHT22;6123;48.864;9.200;2022-10-31T16:46:25;15.40;99.90
12119;DHT22;6123;48.864;9.200;2022-10-31T16:48:53;15.40;99.90
12119;DHT22;6123;48.864;9.200;2022-10-31T16:51:21;15.30;99.90
12119;DHT22;6123;48.864;9.200;2022-10-31T16:53:52;14.70;99.90
12119;DHT22;6123;48.864;9.200;2022-10-31T16:56:31;15.20;99.90
12119;DHT22;6123;48.864;9.200;2022-10-31T16:59:00;15.10;99.90
12119;DHT22;6123;48.864;9.200;2022-10-31T17:01:29;15.00;99.90
12119;DHT22;6123;48.864;9.200;2022-10-31T17:03:54;15.00;99.90
12119;DHT22;6123;48.864;9.200;2022-10-31T17:06:20;14.80;99.90
12119;DHT22;6123;48.864;9.200;2022-10-31T17:08:46;14.70;99.90
12119;DHT22;6123;48.864;9.200;2022-10-31T17:11:15;14.70;99.90
12119;DHT22;6123;48.864;9.200;2022-10-31T17:13:44;14.70;99.90
12119;DHT22;6123;48.864;9.200;2022-10-31T17:16:12;14.70;99.90
12119;DHT22;6123;48.864;9.200;2022-10-31T17:18:39;14.70;99.90
12119;DHT22;6123;48.864;9.200;2022-10-31T17:21:15;14.60;99.90
12119;DHT22;6123;48.864;9.200;2022-10-31T17:23:41;14.60;99.90
12119;DHT22;6123;48.864;9.200;2022-10-31T17:26:11;14.60;99.90
12119;DHT22;6123;48.864;9.200;2022-10-31T17:28:36;14.60;99.90
12119;DHT22;6123;48.864;9.200;2022-10-31T17:31:07;14.60;99.90
12119;DHT22;6123;48.864;9.200;2022-10-31T17:33:34;14.50;99.90
12119;DHT22;6123;48.864;9.200;2022-10-31T17:36:02;14.50;99.90
12119;DHT22;6123;48.864;9.200;2022-10-31T17:38:27;14.00;99.90
12119;DHT22;6123;48.864;9.200;2022-10-31T17:40:53;14.10;99.90
12119;DHT22;6123;48.864;9.200;2022-10-31T17:43:19;14.20;99.90
12119;DHT22;6123;48.864;9.200;2022-10-31T17:45:51;14.20;99.90
12119;DHT22;6123;48.864;9.200;2022-10-31T17:48:19;14.20;99.90
12119;DHT22;6123;48.864;9.200;2022-10-31T17:50:44;14.10;99.90
12119;DHT22;6123;48.864;9.200;2022-10-31T17:53:10;14.20;99.90
12119;DHT22;6123;48.864;9.200;2022-10-31T17:55:35;14.20;99.90
12119;DHT22;6123;48.864;9.200;2022-10-31T17:58:02;14.20;99.90
12119;DHT22;6123;48.864;9.200;2022-10-31T18:00:27;14.00;99.90
12119;DHT22;6123;48.864;9.200;2022-10-31T18:02:53;14.00;99.90
12119;DHT22;6123;48.864;9.200;2022-10-31T18:05:19;14.00;99.90
12119;DHT22;6123;48.864;9.200;2022-10-31T18:07:48;14.00;99.90
12119;DHT22;6123;48.864;9.200;2022-10-31T18:10:14;13.90;99.90
12119;DHT22;6123;48.864;9.200;2022-10-31T18:12:40;13.90;99.90
12119;DHT22;6123;48.864;9.200;2022-10-31T18:15:06;13.90;99.90
12119;DHT22;6123;48.864;9.200;2022-10-31T18:17:32;13.80;99.90